Main page
METAR-TAF:

METAR-TAF

Airports :

Nador, Morocco

Nador International Airport

latitude: 34-59-20N, longitude: 003-01-42W, elevation: 175 m

Current weather observation

The report was made 38 minutes ago, at 09:00 UTC
Wind 4 kt from the South/Southwest
Temperature 12°C
Humidity 67%
Pressure 1027 hPa
Visibility 10 km or more
no clouds below 1500 m and no cumulonimbus

METAR: GMMW 230900Z 20004KT CAVOK 12/06 Q1027 NOSIG

Time: 09:38 (09:38 UTC)

Forecast

The report was made 4 hours and 38 minutes ago, at 05:00 UTC
Forecast valid from 23 at 06 UTC to 24 at 12 UTC
Wind 4 kt from the South/Southeast
Visibility 10 km or more
no clouds below 1500 m and no cumulonimbus
Becoming
from 23 at 08 UTC to 13 at 11 UTC
Wind 7 kt from the North
Temporary
from 23 at 22 UTC to 24 at 06 UTC
Wind 2 kt from variable directions
Visibility: 1000 m
mist

TAF: GMMW 230500Z 2306/2412 16004KT CAVOK BECMG 2308/1311 36007KT TEMPO 2322/2406 VRB02KT 1000 BR

Weather observations and forecasts of more than 4000 airports (METAR and TAF reports).

The available stations are represented by yellow and red dots on the map.

Hover mouse over dot to see the name of the station.

Then click to see weather observations and forecasts.

To change the map : click on the green buttons with a black cross to zoom in, on the green button with a dash to zoom out, or on the green arrows for adjacent maps.


METAR-TAF: